createdAt,value
2022-09-06T00:02:55.281Z,2.78
2022-09-06T00:07:11.569Z,2.47
2022-09-06T00:11:27.875Z,2.42
2022-09-06T00:15:44.052Z,2.95
2022-09-06T00:20:00.653Z,3.00
2022-09-06T00:24:16.869Z,2.87
2022-09-06T00:28:33.110Z,3.17
2022-09-06T00:32:51.170Z,2.80
2022-09-06T00:37:07.255Z,2.95
2022-09-06T00:41:23.404Z,2.62
2022-09-06T00:45:40.972Z,2.28
2022-09-06T00:49:59.261Z,2.30
2022-09-06T00:54:15.396Z,2.58
2022-09-06T00:58:31.658Z,2.40
2022-09-06T01:02:49.143Z,2.53
2022-09-06T01:07:41.725Z,2.25
2022-09-06T01:12:10.484Z,2.50
2022-09-06T01:16:52.500Z,2.83
2022-09-06T01:21:11.551Z,2.90
2022-09-06T01:25:43.872Z,2.70
2022-09-06T01:30:12.852Z,2.53
2022-09-06T01:35:14.181Z,2.17
2022-09-06T01:39:34.708Z,2.22
2022-09-06T01:43:52.172Z,2.10
2022-09-06T01:48:13.998Z,2.40
2022-09-06T01:52:42.352Z,2.70
2022-09-06T01:57:24.426Z,2.30
2022-09-06T02:01:49.633Z,3.03
2022-09-06T02:06:09.968Z,2.35
2022-09-06T02:10:34.972Z,3.30
2022-09-06T02:15:02.572Z,2.47
2022-09-06T02:19:45.875Z,2.65
2022-09-06T02:24:05.585Z,2.15
2022-09-06T02:28:22.045Z,2.45
2022-09-06T02:32:49.823Z,2.80
2022-09-06T02:37:06.632Z,2.90
2022-09-06T02:41:24.227Z,2.40
2022-09-06T02:45:40.417Z,2.72
2022-09-06T02:49:56.552Z,3.03
2022-09-06T02:54:12.681Z,2.75
2022-09-06T02:58:29.580Z,2.60
2022-09-06T03:02:45.822Z,2.83
2022-09-06T03:07:01.860Z,2.87
2022-09-06T03:11:18.040Z,2.35
2022-09-06T03:15:34.063Z,2.55
2022-09-06T03:19:50.131Z,2.55
2022-09-06T03:24:06.571Z,2.70
2022-09-06T03:28:23.522Z,2.75
2022-09-06T03:32:39.551Z,2.92
2022-09-06T03:36:55.543Z,2.55
2022-09-06T03:41:11.736Z,2.40
2022-09-06T03:45:27.922Z,3.12
2022-09-06T03:49:45.430Z,2.45
2022-09-06T03:54:01.658Z,2.25
2022-09-06T03:58:19.366Z,2.45
2022-09-06T04:02:35.534Z,2.58
2022-09-06T04:06:51.750Z,2.78
2022-09-06T04:11:07.905Z,2.42
2022-09-06T04:15:23.886Z,2.87
2022-09-06T04:19:39.889Z,2.70
2022-09-06T04:23:55.872Z,2.97
2022-09-06T04:28:12.030Z,2.95
2022-09-06T04:32:28.304Z,2.90
2022-09-06T04:36:48.140Z,2.90
2022-09-06T04:41:06.002Z,2.90
2022-09-06T04:45:22.181Z,2.62
2022-09-06T04:49:38.400Z,2.60
2022-09-06T04:53:54.703Z,2.40
2022-09-06T04:58:10.744Z,2.83
2022-09-06T05:02:26.845Z,2.87
2022-09-06T05:06:43.342Z,2.62
2022-09-06T05:10:59.356Z,2.65
2022-09-06T05:15:15.948Z,2.50
2022-09-06T05:19:32.079Z,2.80
2022-09-06T05:23:48.161Z,2.22
2022-09-06T05:28:04.299Z,2.60
2022-09-06T05:32:20.346Z,2.92
2022-09-06T05:36:36.508Z,2.78
2022-09-06T05:40:52.831Z,2.90
2022-09-06T05:45:09.275Z,2.67
2022-09-06T05:49:25.381Z,2.70
2022-09-06T05:53:44.114Z,2.60
2022-09-06T05:58:00.147Z,2.90
2022-09-06T06:02:16.240Z,2.75
2022-09-06T06:06:34.825Z,2.83
2022-09-06T06:10:51.029Z,2.90
2022-09-06T06:15:07.450Z,2.72
2022-09-06T06:19:23.470Z,2.78
2022-09-06T06:23:40.247Z,3.03
2022-09-06T06:27:56.347Z,3.03
2022-09-06T06:32:12.486Z,3.00
2022-09-06T06:36:31.608Z,2.95
2022-09-06T06:40:47.580Z,2.90
2022-09-06T06:45:03.789Z,2.70
2022-09-06T06:49:19.803Z,2.95
2022-09-06T06:53:36.323Z,2.45
2022-09-06T06:57:52.417Z,2.58
2022-09-06T07:02:08.610Z,3.03
2022-09-06T07:11:01.531Z,2.60
2022-09-06T07:15:18.003Z,2.83
2022-09-06T07:24:10.407Z,3.08
2022-09-06T07:28:26.736Z,3.15
2022-09-06T07:32:43.059Z,2.85
2022-09-06T07:36:59.083Z,2.97
2022-09-06T07:41:15.731Z,3.15
2022-09-06T07:45:31.818Z,3.40
2022-09-06T07:54:30.412Z,2.92
2022-09-06T07:58:46.909Z,2.90
2022-09-06T08:03:02.925Z,3.03
2022-09-06T08:11:55.093Z,2.97
2022-09-06T08:16:12.640Z,2.58
2022-09-06T08:20:28.662Z,3.10
2022-09-06T08:24:44.657Z,3.00
2022-09-06T08:29:03.058Z,3.03
2022-09-06T08:33:25.591Z,3.05
2022-09-06T08:37:41.744Z,2.70
2022-09-06T08:42:05.550Z,3.20
2022-09-06T08:46:26.658Z,3.55
2022-09-06T08:50:47.409Z,3.35
2022-09-06T08:55:41.085Z,3.28
2022-09-06T09:00:01.839Z,4.18
2022-09-06T09:04:21.149Z,2.62
2022-09-06T09:08:59.280Z,2.95
2022-09-06T09:13:27.718Z,3.03
2022-09-06T09:17:44.372Z,3.40
2022-09-06T09:22:01.290Z,3.20
2022-09-06T09:26:17.295Z,2.70
2022-09-06T09:30:49.966Z,3.12
2022-09-06T09:35:41.383Z,2.65
2022-09-06T09:39:58.445Z,3.42
2022-09-06T09:44:19.157Z,2.62
2022-09-06T09:48:35.163Z,3.35
2022-09-06T09:52:51.164Z,2.80
2022-09-06T09:57:12.308Z,3.15
2022-09-06T10:01:35.783Z,2.90
2022-09-06T10:06:02.660Z,2.90
2022-09-06T10:10:25.402Z,2.90
2022-09-06T10:14:44.753Z,3.45
2022-09-06T10:19:00.790Z,3.35
2022-09-06T10:28:20.089Z,2.95
2022-09-06T10:32:48.298Z,2.65
2022-09-06T10:37:37.740Z,2.97
2022-09-06T10:42:14.298Z,2.65
2022-09-06T10:46:33.906Z,3.08
2022-09-06T10:51:05.879Z,2.72
2022-09-06T10:55:22.743Z,2.83
2022-09-06T10:59:57.686Z,3.22
2022-09-06T11:04:21.861Z,2.45
2022-09-06T11:08:58.071Z,2.65
2022-09-06T11:13:19.260Z,2.80
2022-09-06T11:17:45.368Z,2.58
2022-09-06T11:22:23.187Z,2.72
2022-09-06T11:26:45.233Z,2.65
2022-09-06T11:31:02.074Z,2.75
2022-09-06T11:35:28.904Z,2.58
2022-09-06T11:44:58.636Z,2.67
2022-09-06T11:49:34.033Z,2.72
2022-09-06T11:53:50.527Z,2.70
2022-09-06T11:58:32.157Z,2.40
2022-09-06T12:02:48.511Z,2.85
2022-09-06T12:07:12.423Z,2.42
2022-09-06T12:11:46.768Z,2.58
2022-09-06T12:16:02.899Z,2.78
2022-09-06T12:20:53.206Z,2.65
2022-09-06T12:25:34.257Z,2.92
2022-09-06T12:30:01.943Z,2.42
2022-09-06T12:34:27.292Z,3.60
2022-09-06T12:38:59.135Z,2.90
2022-09-06T12:43:19.472Z,2.60
2022-09-06T12:47:37.798Z,2.70
2022-09-06T12:52:06.980Z,2.53
2022-09-06T12:56:24.622Z,2.53
2022-09-06T13:00:41.666Z,2.70
2022-09-06T13:05:05.593Z,2.70
2022-09-06T13:09:23.872Z,3.05
2022-09-06T13:13:48.584Z,2.33
2022-09-06T13:18:37.412Z,2.70
2022-09-06T13:22:54.531Z,2.72
2022-09-06T13:27:27.656Z,2.78
2022-09-06T13:31:47.925Z,2.58
2022-09-06T13:36:08.798Z,2.80
2022-09-06T13:41:09.777Z,2.20
2022-09-06T13:45:30.209Z,2.60
2022-09-06T13:49:47.361Z,2.30
2022-09-06T13:54:07.782Z,2.58
2022-09-06T13:58:24.729Z,2.25
2022-09-06T14:02:43.935Z,2.65
2022-09-06T14:07:00.401Z,3.03
2022-09-06T14:11:17.030Z,2.85
2022-09-06T14:15:33.072Z,2.80
2022-09-06T14:19:50.255Z,2.80
2022-09-06T14:24:06.761Z,3.00
2022-09-06T14:28:23.015Z,2.83
2022-09-06T14:32:39.053Z,2.70
2022-09-06T14:36:55.140Z,2.80
2022-09-06T14:41:13.792Z,2.78
2022-09-06T14:45:29.981Z,2.95
2022-09-06T14:49:46.007Z,3.00
2022-09-06T14:54:11.105Z,2.92
2022-09-06T14:58:27.214Z,2.90
2022-09-06T15:02:44.245Z,3.30
2022-09-06T15:07:01.004Z,2.75
2022-09-06T15:11:30.265Z,2.90
2022-09-06T15:15:46.429Z,3.10
2022-09-06T15:20:03.059Z,2.83
2022-09-06T15:24:20.219Z,2.92
2022-09-06T15:28:37.667Z,3.15
2022-09-06T15:32:53.700Z,3.30
2022-09-06T15:37:10.670Z,3.30
2022-09-06T15:41:28.624Z,3.28
2022-09-06T15:45:49.856Z,3.10
2022-09-06T15:50:07.195Z,3.75
2022-09-06T15:54:43.257Z,3.42
2022-09-06T15:58:59.540Z,3.15
2022-09-06T16:03:15.538Z,3.17
2022-09-06T16:07:31.914Z,3.95
2022-09-06T16:11:48.066Z,3.08
2022-09-06T16:16:06.609Z,3.62
2022-09-06T16:20:23.294Z,3.47
2022-09-06T16:24:39.295Z,3.70
2022-09-06T16:28:55.381Z,3.80
2022-09-06T16:33:12.767Z,3.97
2022-09-06T16:37:29.008Z,3.85
2022-09-06T16:41:46.483Z,4.00
2022-09-06T16:46:04.349Z,3.03
2022-09-06T16:50:20.520Z,2.85
2022-09-06T16:54:37.477Z,3.28
2022-09-06T16:58:58.728Z,3.75
2022-09-06T17:03:14.857Z,3.40
2022-09-06T17:07:31.339Z,2.72
2022-09-06T17:11:50.291Z,3.00
2022-09-06T17:16:25.606Z,3.60
2022-09-06T17:20:41.894Z,3.58
2022-09-06T17:24:58.028Z,3.08
2022-09-06T17:29:14.020Z,3.53
2022-09-06T17:33:31.311Z,3.40
2022-09-06T17:37:47.396Z,3.72
2022-09-06T17:42:03.858Z,3.30
2022-09-06T17:46:20.075Z,3.58
2022-09-06T17:50:36.548Z,3.33
2022-09-06T17:54:52.464Z,3.30
2022-09-06T17:59:11.488Z,3.10
2022-09-06T18:03:27.549Z,3.50
2022-09-06T18:07:43.640Z,3.40
2022-09-06T18:11:59.708Z,3.08
2022-09-06T18:16:16.048Z,3.20
2022-09-06T18:20:32.077Z,3.42
2022-09-06T18:24:48.721Z,2.90
2022-09-06T18:29:07.165Z,3.05
2022-09-06T18:33:26.707Z,3.08
2022-09-06T18:37:42.749Z,3.20
2022-09-06T18:42:01.593Z,3.37
2022-09-06T18:46:17.627Z,3.00
2022-09-06T18:50:36.977Z,3.20
2022-09-06T18:54:53.003Z,3.42
2022-09-06T18:59:11.233Z,3.03
2022-09-06T19:03:27.347Z,3.60
2022-09-06T19:07:43.467Z,3.08
2022-09-06T19:11:59.471Z,2.90
2022-09-06T19:16:15.799Z,3.17
2022-09-06T19:20:32.405Z,3.42
2022-09-06T19:24:48.588Z,3.20
2022-09-06T19:29:08.975Z,3.37
2022-09-06T19:33:30.351Z,3.97
2022-09-06T19:37:49.225Z,3.22
2022-09-06T19:42:06.028Z,3.80
2022-09-06T19:46:24.759Z,3.47
2022-09-06T19:50:41.566Z,3.45
2022-09-06T19:54:57.539Z,3.12
2022-09-06T19:59:15.128Z,3.37
2022-09-06T20:03:31.838Z,3.35
2022-09-06T20:07:47.878Z,3.65
2022-09-06T20:12:04.907Z,3.60
2022-09-06T20:16:21.297Z,3.60
2022-09-06T20:20:37.743Z,3.60
2022-09-06T20:24:53.781Z,3.58
2022-09-06T20:29:10.076Z,3.35
2022-09-06T20:33:26.059Z,3.40
2022-09-06T20:37:42.030Z,3.45
2022-09-06T20:41:58.095Z,3.40
2022-09-06T20:46:16.617Z,3.80
2022-09-06T20:50:32.716Z,3.33
2022-09-06T20:54:48.686Z,3.37
2022-09-06T20:59:07.096Z,3.58
2022-09-06T21:03:23.752Z,3.87
2022-09-06T21:07:39.756Z,3.60
2022-09-06T21:11:56.966Z,3.55
2022-09-06T21:16:13.000Z,3.78
2022-09-06T21:20:29.442Z,3.72
2022-09-06T21:24:45.371Z,3.53
2022-09-06T21:29:01.348Z,3.70
2022-09-06T21:33:17.693Z,3.67
2022-09-06T21:37:34.221Z,3.83
2022-09-06T21:41:50.356Z,3.53
2022-09-06T21:46:08.568Z,4.03
2022-09-06T21:50:24.561Z,3.90
2022-09-06T21:54:40.581Z,3.92
2022-09-06T21:58:58.278Z,3.55
2022-09-06T22:03:14.353Z,3.65
2022-09-06T22:07:31.059Z,3.45
2022-09-06T22:11:47.029Z,4.20
2022-09-06T22:16:07.908Z,3.80
2022-09-06T22:20:24.295Z,3.90
2022-09-06T22:24:40.282Z,4.10
2022-09-06T22:28:58.340Z,3.90
2022-09-06T22:33:14.329Z,4.15
2022-09-06T22:37:30.351Z,4.03
2022-09-06T22:41:46.320Z,4.12
2022-09-06T22:46:07.044Z,3.80
2022-09-06T22:50:23.171Z,4.43
2022-09-06T22:54:40.109Z,3.90
2022-09-06T22:58:56.112Z,4.00
2022-09-06T23:03:12.240Z,4.32
2022-09-06T23:07:28.253Z,4.22
2022-09-06T23:11:44.644Z,4.20
2022-09-06T23:16:09.087Z,3.58
2022-09-06T23:20:25.563Z,3.92
2022-09-06T23:24:41.519Z,3.83
2022-09-06T23:28:57.644Z,4.12
2022-09-06T23:33:13.563Z,4.10
2022-09-06T23:42:08.120Z,4.00
2022-09-06T23:46:24.320Z,4.05
2022-09-06T23:50:40.491Z,3.92
2022-09-06T23:54:56.627Z,4.40
2022-09-06T23:59:12.739Z,4.30
